createdAt,value
2023-04-18T00:01:21.452Z,81.29
2023-04-18T00:04:46.573Z,80.71
2023-04-18T00:08:08.826Z,80.33
2023-04-18T00:11:32.547Z,81.08
2023-04-18T00:14:54.728Z,80.13
2023-04-18T00:18:17.380Z,80.87
2023-04-18T00:21:44.692Z,80.14
2023-04-18T00:25:10.790Z,80.25
2023-04-18T00:28:34.647Z,80.59
2023-04-18T00:31:56.232Z,81.17
2023-04-18T00:35:19.468Z,81.40
2023-04-18T00:38:41.080Z,80.98
2023-04-18T00:42:03.800Z,81.51
2023-04-18T00:45:30.675Z,81.08
2023-04-18T00:48:55.305Z,80.79
2023-04-18T00:52:18.503Z,80.51
2023-04-18T00:55:40.674Z,80.64
2023-04-18T00:59:06.071Z,80.29
2023-04-18T01:02:30.631Z,80.13
2023-04-18T01:05:54.652Z,79.79
2023-04-18T01:09:16.426Z,80.32
2023-04-18T01:12:40.424Z,79.47
2023-04-18T01:16:02.033Z,79.93
2023-04-18T01:19:23.675Z,79.77
2023-04-18T01:22:45.246Z,79.69
2023-04-18T01:26:07.474Z,79.51
2023-04-18T01:29:31.858Z,78.99
2023-04-18T01:32:53.526Z,78.89
2023-04-18T01:36:17.701Z,78.73
2023-04-18T01:39:44.617Z,79.49
2023-04-18T01:43:06.201Z,79.43
2023-04-18T01:46:28.888Z,78.52
2023-04-18T01:49:52.682Z,79.62
2023-04-18T01:53:17.659Z,79.37
2023-04-18T01:56:39.238Z,79.00
2023-04-18T02:00:01.801Z,78.26
2023-04-18T02:03:24.257Z,78.65
2023-04-18T02:06:48.680Z,78.50
2023-04-18T02:10:11.253Z,78.43
2023-04-18T02:13:32.977Z,78.33
2023-04-18T02:16:54.536Z,78.75
2023-04-18T02:20:18.527Z,77.77
2023-04-18T02:23:40.138Z,77.67
2023-04-18T02:27:04.246Z,78.21
2023-04-18T02:30:28.358Z,78.53
2023-04-18T02:33:49.959Z,77.87
2023-04-18T02:37:14.604Z,78.53
2023-04-18T02:40:36.200Z,79.01
2023-04-18T02:43:58.165Z,79.06
2023-04-18T02:47:25.672Z,79.65
2023-04-18T02:50:47.294Z,79.64
2023-04-18T02:54:13.686Z,79.44
2023-04-18T02:57:35.363Z,79.22
2023-04-18T03:00:57.052Z,79.54
2023-04-18T03:04:18.727Z,79.64
2023-04-18T03:07:40.343Z,79.84
2023-04-18T03:11:01.988Z,79.47
2023-04-18T03:14:25.643Z,80.22
2023-04-18T03:17:49.849Z,80.19
2023-04-18T03:21:11.784Z,80.22
2023-04-18T03:24:33.358Z,79.52
2023-04-18T03:27:55.594Z,79.97
2023-04-18T03:31:17.190Z,79.64
2023-04-18T03:34:38.824Z,80.28
2023-04-18T03:38:05.682Z,80.07
2023-04-18T03:41:28.147Z,80.18
2023-04-18T03:44:51.889Z,79.97
2023-04-18T03:48:18.452Z,79.79
2023-04-18T03:51:45.272Z,81.15
2023-04-18T03:55:07.229Z,81.42
2023-04-18T03:58:28.932Z,81.49
2023-04-18T04:01:50.650Z,81.77
2023-04-18T04:05:12.350Z,81.84
2023-04-18T04:08:34.311Z,81.53
2023-04-18T04:11:55.915Z,80.77
2023-04-18T04:15:17.665Z,81.87
2023-04-18T04:18:41.690Z,82.27
2023-04-18T04:22:03.275Z,82.85
2023-04-18T04:25:30.116Z,82.78
2023-04-18T04:28:57.588Z,82.67
2023-04-18T04:32:20.436Z,83.24
2023-04-18T04:35:44.225Z,83.62
2023-04-18T04:39:08.657Z,83.50
2023-04-18T04:42:32.589Z,83.51
2023-04-18T04:45:54.296Z,83.39
2023-04-18T04:49:18.929Z,85.19
2023-04-18T04:52:42.910Z,85.33
2023-04-18T04:56:07.186Z,85.92
2023-04-18T04:59:28.762Z,85.25
2023-04-18T05:02:55.247Z,85.76
2023-04-18T05:06:20.922Z,85.78
2023-04-18T05:09:45.012Z,85.62
2023-04-18T05:13:08.937Z,85.11
2023-04-18T05:16:31.650Z,84.72
2023-04-18T05:19:53.259Z,84.02
2023-04-18T05:23:20.041Z,83.65
2023-04-18T05:26:43.906Z,83.27
2023-04-18T05:30:06.400Z,84.29
2023-04-18T05:33:31.731Z,84.04
2023-04-18T05:36:53.526Z,84.19
2023-04-18T05:40:15.111Z,84.18
2023-04-18T05:43:37.974Z,82.77
2023-04-18T05:46:59.550Z,82.77
2023-04-18T05:50:23.744Z,82.32
2023-04-18T05:53:47.412Z,81.49
2023-04-18T05:57:11.254Z,81.54
2023-04-18T06:00:32.827Z,80.82
2023-04-18T06:03:55.431Z,81.68
2023-04-18T06:07:17.290Z,80.57
2023-04-18T06:10:41.117Z,80.47
2023-04-18T06:14:03.107Z,80.03
2023-04-18T06:17:24.799Z,80.16
2023-04-18T06:20:51.671Z,79.60
2023-04-18T06:24:13.583Z,78.76
2023-04-18T06:27:38.062Z,78.52
2023-04-18T06:31:02.158Z,77.19
2023-04-18T06:34:26.267Z,77.66
2023-04-18T06:37:51.106Z,76.85
2023-04-18T06:41:15.782Z,77.58
2023-04-18T06:44:37.585Z,77.04
2023-04-18T06:48:02.057Z,76.12
2023-04-18T06:51:24.240Z,76.13
2023-04-18T06:54:50.304Z,74.94
2023-04-18T06:58:13.789Z,75.43
2023-04-18T07:01:44.722Z,73.72
2023-04-18T07:05:11.230Z,73.31
2023-04-18T07:08:34.790Z,70.83
2023-04-18T07:11:58.719Z,72.51
2023-04-18T07:15:22.805Z,70.75
2023-04-18T07:18:44.424Z,72.28
2023-04-18T07:22:06.076Z,70.91
2023-04-18T07:25:27.854Z,72.11
2023-04-18T07:28:52.831Z,70.76
2023-04-18T07:32:19.348Z,70.50
2023-04-18T07:35:45.947Z,71.23
2023-04-18T07:39:08.004Z,71.18
2023-04-18T07:42:29.614Z,69.66
2023-04-18T07:45:52.166Z,69.72
2023-04-18T07:49:16.608Z,68.47
2023-04-18T07:52:39.640Z,68.00
2023-04-18T07:56:03.861Z,66.02
2023-04-18T07:59:25.567Z,66.28
2023-04-18T08:02:49.725Z,66.10
2023-04-18T08:06:13.955Z,61.60
2023-04-18T08:09:40.493Z,63.25
2023-04-18T08:13:08.119Z,60.45
2023-04-18T08:16:29.880Z,56.26
2023-04-18T08:19:54.094Z,57.30
2023-04-18T08:23:18.433Z,56.53
2023-04-18T08:26:42.142Z,55.63
2023-04-18T08:30:04.840Z,55.66
2023-04-18T08:33:29.408Z,55.42
2023-04-18T08:36:51.388Z,55.26
2023-04-18T08:40:13.129Z,52.49
2023-04-18T08:43:40.267Z,52.74
2023-04-18T08:47:02.050Z,49.13
2023-04-18T08:50:23.680Z,50.25
2023-04-18T08:53:49.037Z,48.95
2023-04-18T08:57:12.656Z,51.42
2023-04-18T09:00:36.549Z,51.62
2023-04-18T09:03:58.370Z,52.55
2023-04-18T09:07:29.453Z,53.08
2023-04-18T09:10:51.054Z,52.47
2023-04-18T09:14:24.594Z,53.53
2023-04-18T09:17:53.465Z,54.39
2023-04-18T09:21:21.725Z,54.40
2023-04-18T09:24:55.663Z,54.91
2023-04-18T09:28:31.272Z,54.42
2023-04-18T09:32:01.943Z,53.12
2023-04-18T09:35:27.982Z,53.59
2023-04-18T09:38:54.501Z,53.40
2023-04-18T09:42:21.105Z,52.85
2023-04-18T09:45:45.889Z,51.12
2023-04-18T09:49:09.667Z,49.33
2023-04-18T09:52:37.567Z,47.79
2023-04-18T09:56:02.761Z,46.40
2023-04-18T09:59:37.127Z,47.66
2023-04-18T10:03:05.043Z,44.77
2023-04-18T10:06:30.071Z,44.65
2023-04-18T10:09:52.372Z,46.08
2023-04-18T10:13:14.309Z,43.95
2023-04-18T10:16:37.593Z,44.63
2023-04-18T10:20:10.339Z,44.93
2023-04-18T10:23:35.044Z,46.10
2023-04-18T10:26:59.007Z,44.80
2023-04-18T10:30:40.545Z,45.25
2023-04-18T10:34:06.714Z,46.17
2023-04-18T10:37:32.116Z,46.62
2023-04-18T10:41:12.263Z,44.94
2023-04-18T10:44:33.887Z,47.50
2023-04-18T10:48:24.957Z,43.47
2023-04-18T10:51:58.513Z,45.27
2023-04-18T10:55:28.893Z,44.97
2023-04-18T10:58:52.463Z,46.69
2023-04-18T11:02:34.247Z,44.29
2023-04-18T11:06:04.541Z,43.80
2023-04-18T11:09:28.992Z,41.21
2023-04-18T11:12:51.623Z,46.56
2023-04-18T11:16:31.858Z,45.54
2023-04-18T11:20:01.634Z,44.04
2023-04-18T11:23:25.082Z,40.51
2023-04-18T11:26:48.821Z,40.82
2023-04-18T11:30:13.671Z,41.86
2023-04-18T11:33:37.576Z,39.67
2023-04-18T11:36:59.549Z,41.61
2023-04-18T11:40:21.523Z,41.35
2023-04-18T11:43:46.509Z,40.15
2023-04-18T11:47:27.046Z,40.71
2023-04-18T11:50:49.404Z,40.19
2023-04-18T11:54:38.968Z,38.63
2023-04-18T11:58:01.659Z,35.35
2023-04-18T12:01:25.787Z,34.41
2023-04-18T12:04:53.331Z,35.47
2023-04-18T12:08:19.395Z,36.78
2023-04-18T12:11:43.317Z,35.62
2023-04-18T12:15:14.418Z,37.51
2023-04-18T12:18:36.013Z,34.76
2023-04-18T12:22:03.223Z,35.10
2023-04-18T12:25:28.475Z,35.45
2023-04-18T12:28:51.390Z,37.76
2023-04-18T12:32:17.043Z,38.20
2023-04-18T12:35:38.649Z,38.93
2023-04-18T12:39:04.977Z,37.52
2023-04-18T12:42:31.452Z,38.80
2023-04-18T12:45:53.140Z,37.93
2023-04-18T12:49:14.988Z,36.83
2023-04-18T12:52:44.838Z,36.92
2023-04-18T12:56:07.035Z,39.14
2023-04-18T12:59:29.532Z,39.49
2023-04-18T13:02:52.951Z,40.62
2023-04-18T13:06:14.944Z,39.86
2023-04-18T13:09:42.058Z,38.72
2023-04-18T13:13:03.655Z,38.36
2023-04-18T13:16:25.887Z,37.92
2023-04-18T13:19:47.542Z,37.75
2023-04-18T13:23:11.344Z,37.61
2023-04-18T13:26:39.002Z,37.10
2023-04-18T13:30:01.188Z,39.03
2023-04-18T13:33:22.825Z,37.84
2023-04-18T13:36:44.617Z,38.47
2023-04-18T13:40:09.641Z,36.93
2023-04-18T13:43:31.552Z,36.65
2023-04-18T13:46:53.330Z,34.70
2023-04-18T13:50:17.425Z,34.97
2023-04-18T13:53:41.082Z,34.93
2023-04-18T13:57:11.335Z,35.73
2023-04-18T14:00:32.952Z,32.83
2023-04-18T14:03:57.229Z,33.47
2023-04-18T14:07:19.110Z,34.75
2023-04-18T14:10:40.772Z,33.44
2023-04-18T14:14:02.710Z,31.53
2023-04-18T14:17:26.765Z,31.95
2023-04-18T14:20:48.718Z,32.83
2023-04-18T14:24:10.387Z,34.32
2023-04-18T14:27:32.943Z,35.94
2023-04-18T14:30:58.048Z,34.61
2023-04-18T14:34:22.314Z,35.55
2023-04-18T14:37:44.037Z,35.40
2023-04-18T14:41:07.940Z,35.40
2023-04-18T14:44:30.971Z,35.72
2023-04-18T14:47:52.574Z,35.33
2023-04-18T14:51:17.169Z,36.65
2023-04-18T14:54:38.740Z,34.24
2023-04-18T14:58:03.621Z,34.70
2023-04-18T15:01:25.283Z,35.30
2023-04-18T15:04:53.266Z,34.37
2023-04-18T15:08:17.337Z,34.49
2023-04-18T15:11:39.019Z,35.20
2023-04-18T15:15:00.647Z,36.13
2023-04-18T15:18:22.407Z,37.56
2023-04-18T15:21:46.397Z,36.48
2023-04-18T15:25:08.445Z,37.09
2023-04-18T15:28:33.689Z,37.74
2023-04-18T15:31:57.913Z,36.87
2023-04-18T15:35:19.661Z,38.11
2023-04-18T15:38:42.509Z,38.19
2023-04-18T15:42:04.181Z,38.20
2023-04-18T15:45:26.159Z,38.54
2023-04-18T15:48:50.286Z,39.86
2023-04-18T15:52:13.686Z,38.73
2023-04-18T15:55:37.723Z,38.19
2023-04-18T15:59:00.196Z,39.18
2023-04-18T16:02:24.403Z,38.35
2023-04-18T16:05:48.908Z,39.19
2023-04-18T16:09:10.658Z,39.68
2023-04-18T16:12:34.384Z,40.31
2023-04-18T16:15:55.989Z,39.49
2023-04-18T16:19:17.657Z,38.89
2023-04-18T16:22:39.305Z,47.66
2023-04-18T16:26:00.898Z,41.79
2023-04-18T16:29:22.564Z,45.86
2023-04-18T16:32:44.345Z,42.11
2023-04-18T16:36:06.980Z,39.75
2023-04-18T16:39:29.710Z,37.00
2023-04-18T16:42:56.305Z,37.66
2023-04-18T16:46:19.148Z,38.04
2023-04-18T16:49:44.130Z,37.44
2023-04-18T16:53:07.244Z,38.10
2023-04-18T16:56:29.631Z,38.89
2023-04-18T16:59:51.352Z,38.47
2023-04-18T17:03:13.106Z,43.02
2023-04-18T17:06:37.576Z,46.54
2023-04-18T17:09:59.202Z,43.99
2023-04-18T17:13:27.206Z,44.88
2023-04-18T17:16:53.336Z,43.78
2023-04-18T17:20:18.100Z,38.81
2023-04-18T17:23:41.587Z,40.08
2023-04-18T17:27:05.801Z,40.22
2023-04-18T17:30:27.868Z,41.94
2023-04-18T17:33:54.643Z,42.41
2023-04-18T17:37:17.167Z,43.10
2023-04-18T17:40:39.745Z,43.31
2023-04-18T17:44:01.529Z,43.60
2023-04-18T17:47:23.493Z,44.84
2023-04-18T17:50:45.152Z,45.61
2023-04-18T17:54:08.219Z,46.47
2023-04-18T17:57:33.643Z,47.35
2023-04-18T18:00:55.341Z,47.88
2023-04-18T18:04:19.972Z,48.64
2023-04-18T18:07:45.926Z,49.35
2023-04-18T18:11:11.161Z,49.11
2023-04-18T18:14:32.806Z,49.22
2023-04-18T18:17:56.853Z,49.96
2023-04-18T18:21:18.956Z,50.33
2023-04-18T18:24:40.874Z,51.34
2023-04-18T18:28:03.477Z,52.01
2023-04-18T18:31:25.662Z,51.81
2023-04-18T18:34:47.475Z,52.29
2023-04-18T18:38:11.467Z,53.01
2023-04-18T18:41:33.353Z,51.14
2023-04-18T18:44:55.138Z,51.02
2023-04-18T18:48:16.786Z,51.65
2023-04-18T18:51:41.012Z,50.19
2023-04-18T18:55:05.212Z,49.87
2023-04-18T18:58:27.132Z,50.70
2023-04-18T19:01:48.885Z,48.60
2023-04-18T19:05:12.965Z,48.60
2023-04-18T19:08:37.602Z,47.51
2023-04-18T19:11:59.219Z,46.96
2023-04-18T19:15:23.304Z,47.90
2023-04-18T19:18:49.198Z,47.60
2023-04-18T19:22:10.777Z,47.38
2023-04-18T19:25:35.373Z,47.73
2023-04-18T19:28:57.118Z,47.54
2023-04-18T19:32:18.773Z,48.48
2023-04-18T19:35:43.187Z,48.53
2023-04-18T19:39:08.120Z,48.61
2023-04-18T19:42:29.758Z,47.95
2023-04-18T19:45:52.629Z,48.16
2023-04-18T19:49:22.519Z,47.83
2023-04-18T19:52:44.107Z,47.90
2023-04-18T19:56:05.763Z,47.38
2023-04-18T19:59:27.344Z,47.23
2023-04-18T20:02:51.436Z,48.07
2023-04-18T20:06:13.546Z,48.11
2023-04-18T20:09:35.185Z,47.68
2023-04-18T20:12:56.862Z,46.51
2023-04-18T20:16:18.589Z,47.52
2023-04-18T20:19:40.218Z,47.32
2023-04-18T20:23:03.931Z,47.00
2023-04-18T20:26:28.073Z,45.52
2023-04-18T20:29:49.778Z,46.69
2023-04-18T20:33:13.814Z,46.91
2023-04-18T20:36:36.355Z,45.96
2023-04-18T20:39:58.715Z,45.53
2023-04-18T20:43:23.189Z,45.13
2023-04-18T20:46:45.538Z,45.71
2023-04-18T20:50:10.304Z,46.64
2023-04-18T20:53:31.969Z,46.75
2023-04-18T20:56:53.541Z,47.22
2023-04-18T21:00:15.931Z,46.97
2023-04-18T21:03:39.966Z,47.41
2023-04-18T21:07:03.877Z,47.21
2023-04-18T21:10:26.406Z,48.30
2023-04-18T21:13:47.985Z,48.42
2023-04-18T21:17:17.034Z,49.69
2023-04-18T21:20:40.899Z,49.79
2023-04-18T21:24:05.699Z,49.84
2023-04-18T21:27:27.336Z,50.31
2023-04-18T21:30:49.028Z,50.50
2023-04-18T21:34:11.265Z,50.64
2023-04-18T21:37:32.910Z,50.91
2023-04-18T21:40:54.526Z,51.07
2023-04-18T21:44:18.754Z,51.21
2023-04-18T21:47:43.450Z,51.08
2023-04-18T21:51:09.096Z,51.03
2023-04-18T21:54:30.885Z,50.89
2023-04-18T21:57:54.312Z,51.51
2023-04-18T22:01:18.437Z,52.11
2023-04-18T22:04:42.608Z,52.00
2023-04-18T22:08:07.286Z,52.62
2023-04-18T22:11:32.236Z,52.49
2023-04-18T22:14:56.703Z,53.16
2023-04-18T22:18:19.174Z,53.18
2023-04-18T22:21:40.998Z,53.50
2023-04-18T22:25:07.312Z,53.53
2023-04-18T22:28:29.060Z,53.76
2023-04-18T22:31:50.937Z,54.04
2023-04-18T22:35:12.763Z,53.98
2023-04-18T22:38:34.443Z,53.65
2023-04-18T22:41:58.074Z,54.12
2023-04-18T22:45:22.216Z,53.57
2023-04-18T22:48:46.235Z,53.55
2023-04-18T22:52:10.359Z,52.82
2023-04-18T22:55:31.996Z,53.51
2023-04-18T22:58:53.626Z,54.12
2023-04-18T23:02:20.000Z,53.83
2023-04-18T23:05:41.982Z,53.97
2023-04-18T23:09:06.372Z,53.79
2023-04-18T23:12:30.371Z,52.96
2023-04-18T23:15:52.052Z,52.88
2023-04-18T23:19:16.011Z,53.50
2023-04-18T23:22:40.951Z,53.53
2023-04-18T23:26:02.620Z,52.82
2023-04-18T23:29:24.465Z,53.57
2023-04-18T23:32:46.092Z,53.16
2023-04-18T23:36:08.273Z,53.35
2023-04-18T23:39:29.887Z,53.44
2023-04-18T23:42:53.715Z,53.39
2023-04-18T23:46:17.887Z,53.12
2023-04-18T23:49:42.193Z,53.00
2023-04-18T23:53:09.329Z,53.14
2023-04-18T23:56:30.910Z,53.21
2023-04-18T23:59:52.542Z,53.52
